Time;durP1;ratioP1;P1;durP2;ratioP2;P2;SDS_P1;SDS_P2;PMS_P1;PMS_P2;Temp;Humidity;BMP_temperature;BMP_pressure;BME280_temperature;BME280_humidity;BME280_pressure;Samples;Min_cycle;Max_cycle;Signal;HPM_P1;HPM_P2
2021/07/21 00:01:20;;;;;;;8.73;8.00;;;28.20;58.70;;;;;;4738564;59;22272;-22
2021/07/21 00:06:21;;;;;;;8.82;8.02;;;28.20;58.60;;;;;;4811278;55;21077;-26
2021/07/21 00:16:43;;;;;;;8.95;8.10;;;28.20;58.90;;;;;;4738508;55;21112;-25
2021/07/21 00:21:44;;;;;;;8.70;7.80;;;28.20;58.90;;;;;;4752858;55;21465;-24
2021/07/21 00:26:45;;;;;;;9.13;8.32;;;28.20;58.60;;;;;;4737420;55;21109;-27
2021/07/21 00:31:46;;;;;;;8.60;7.80;;;28.20;58.40;;;;;;4751994;55;21002;-24
2021/07/21 00:36:46;;;;;;;8.77;7.97;;;28.20;58.60;;;;;;4776500;55;21018;-25
2021/07/21 00:41:47;;;;;;;8.68;7.87;;;28.20;58.50;;;;;;4750881;55;21018;-26
2021/07/21 00:46:48;;;;;;;8.50;7.80;;;28.20;58.40;;;;;;4738753;55;21066;-24
2021/07/21 00:51:49;;;;;;;8.80;8.00;;;28.10;58.50;;;;;;4749230;55;21062;-24
2021/07/21 00:56:52;;;;;;;7.97;7.28;;;28.20;58.50;;;;;;4740137;55;21109;-27
2021/07/21 01:01:53;;;;;;;8.32;7.53;;;28.10;58.30;;;;;;4738810;59;21480;-28
2021/07/21 01:06:54;;;;;;;8.02;7.32;;;28.20;58.20;;;;;;4737546;55;21018;-25
2021/07/21 01:12:13;;;;;;;8.23;7.43;;;28.20;58.40;;;;;;4756175;55;21018;-29
2021/07/21 01:17:24;;;;;;;8.73;8.00;;;28.20;58.40;;;;;;4740456;55;21575;-26
2021/07/21 01:22:31;;;;;;;8.07;7.37;;;28.20;58.30;;;;;;4764063;55;21014;-29
2021/07/21 01:27:53;;;;;;;8.98;8.07;;;28.10;58.20;;;;;;4775964;55;20997;-25
2021/07/21 01:33:00;;;;;;;8.50;7.70;;;28.10;58.20;;;;;;4740412;55;21085;-24
2021/07/21 01:38:12;;;;;;;8.23;7.53;;;28.10;58.20;;;;;;4738773;59;21038;-26
2021/07/21 01:43:19;;;;;;;8.07;7.25;;;28.10;58.10;;;;;;4798306;55;20990;-23
2021/07/21 01:48:23;;;;;;;7.95;7.25;;;28.10;58.20;;;;;;4755257;55;21030;-28
2021/07/21 01:53:24;;;;;;;8.18;7.37;;;28.10;58.10;;;;;;4798891;55;21074;-22
2021/07/21 01:58:29;;;;;;;7.87;7.18;;;28.10;58.10;;;;;;4796799;55;20994;-26
2021/07/21 02:03:31;;;;;;;7.95;7.25;;;28.10;58.00;;;;;;4767760;55;21082;-22
2021/07/21 02:08:33;;;;;;;8.45;7.65;;;28.10;58.10;;;;;;4767284;55;21065;-27
2021/07/21 02:13:36;;;;;;;8.90;8.05;;;28.10;58.00;;;;;;4757010;55;21014;-30
2021/07/21 02:18:37;;;;;;;8.55;7.62;;;28.10;58.10;;;;;;4768638;55;21006;-24
2021/07/21 02:23:38;;;;;;;8.10;7.30;;;28.20;58.10;;;;;;4762388;55;21002;-23
2021/07/21 02:28:39;;;;;;;7.95;7.22;;;28.10;58.00;;;;;;4738455;59;21001;-26
2021/07/21 02:34:02;;;;;;;8.02;7.32;;;28.10;58.00;;;;;;4738716;55;21071;-25
2021/07/21 02:39:06;;;;;;;7.85;7.12;;;28.10;58.10;;;;;;4743719;55;21534;-23
2021/07/21 02:44:07;;;;;;;7.45;6.85;;;28.10;57.90;;;;;;4797405;55;21101;-29
2021/07/21 02:49:07;;;;;;;7.93;7.22;;;28.10;58.00;;;;;;4749329;55;20978;-25
2021/07/21 02:56:19;;;;;;;7.85;7.07;;;28.10;58.00;;;;;;4737537;59;21093;-27
2021/07/21 03:01:21;;;;;;;7.55;6.90;;;28.10;57.80;;;;;;4767509;55;21499;-31
2021/07/21 03:06:26;;;;;;;8.00;7.20;;;28.10;57.90;;;;;;4762146;55;21038;-24
2021/07/21 03:11:27;;;;;;;7.87;7.07;;;28.10;57.80;;;;;;4747417;55;21599;-23
2021/07/21 03:16:34;;;;;;;8.43;7.47;;;28.10;58.00;;;;;;4740319;55;21034;-23
2021/07/21 03:21:37;;;;;;;8.00;7.30;;;28.10;57.80;;;;;;4738324;56;22000;-23
2021/07/21 03:26:38;;;;;;;7.60;6.90;;;28.10;57.70;;;;;;4749968;55;21086;-24
2021/07/21 03:31:41;;;;;;;7.82;7.12;;;28.10;57.70;;;;;;4750461;55;21072;-26
2021/07/21 03:36:47;;;;;;;7.85;7.10;;;28.10;57.80;;;;;;4738618;59;21113;-25
2021/07/21 03:41:50;;;;;;;7.68;6.97;;;28.10;57.80;;;;;;4756934;55;21005;-25
2021/07/21 03:46:52;;;;;;;7.60;6.90;;;28.10;57.70;;;;;;4761002;55;21026;-24
2021/07/21 03:51:54;;;;;;;7.90;7.18;;;28.10;57.60;;;;;;4760796;55;21005;-22
2021/07/21 03:56:57;;;;;;;7.87;7.05;;;28.10;57.50;;;;;;4741293;55;21002;-25
2021/07/21 04:01:59;;;;;;;7.45;6.80;;;28.10;57.50;;;;;;4757117;55;21018;-26
2021/07/21 04:07:01;;;;;;;7.45;6.75;;;28.00;57.40;;;;;;4754251;55;21049;-27
2021/07/21 04:12:04;;;;;;;8.25;6.82;;;28.00;57.30;;;;;;4753721;55;21065;-30
2021/07/21 04:17:05;;;;;;;8.25;7.05;;;28.00;57.20;;;;;;4738470;56;21121;-26
2021/07/21 04:22:07;;;;;;;7.78;7.03;;;28.00;57.10;;;;;;4800593;55;21488;-26
2021/07/21 04:27:10;;;;;;;8.20;7.40;;;28.00;57.10;;;;;;4737220;59;21018;-26
2021/07/21 04:32:13;;;;;;;8.13;7.32;;;28.00;57.00;;;;;;4764355;55;21540;-25
2021/07/21 04:37:14;;;;;;;8.10;7.20;;;28.00;56.90;;;;;;4738437;59;21006;-26
2021/07/21 04:42:19;;;;;;;8.27;7.47;;;28.00;56.70;;;;;;4738276;55;21077;-25
2021/07/21 04:47:20;;;;;;;8.23;7.37;;;28.00;56.70;;;;;;4757760;55;21080;-30
2021/07/21 04:52:25;;;;;;;7.87;7.18;;;27.90;56.60;;;;;;4769987;55;21093;-23
2021/07/21 04:57:26;;;;;;;8.50;7.60;;;28.00;56.60;;;;;;4777991;55;21000;-25
2021/07/21 05:02:28;;;;;;;8.50;7.20;;;28.00;56.60;;;;;;4756074;55;21026;-24
2021/07/21 05:07:29;;;;;;;7.18;6.47;;;28.00;56.50;;;;;;4747244;55;21010;-28
2021/07/21 05:12:29;;;;;;;8.32;7.50;;;28.00;56.30;;;;;;4737855;59;21038;-27
2021/07/21 05:17:30;;;;;;;9.82;7.53;;;27.90;56.20;;;;;;4756744;55;21089;-26
2021/07/21 05:22:31;;;;;;;8.32;7.30;;;27.90;56.20;;;;;;4771013;55;21485;-23
2021/07/21 05:27:32;;;;;;;8.20;7.40;;;27.90;56.20;;;;;;4740201;55;21592;-26
2021/07/21 05:32:32;;;;;;;9.23;7.72;;;27.90;56.20;;;;;;4774606;55;21089;-25
2021/07/21 05:37:35;;;;;;;10.35;8.45;;;27.90;56.10;;;;;;4780624;55;21054;-29
2021/07/21 05:42:35;;;;;;;8.70;7.90;;;27.90;56.00;;;;;;4756808;55;21014;-28
2021/07/21 05:47:36;;;;;;;8.60;7.75;;;27.90;55.90;;;;;;4776215;55;21287;-29
2021/07/21 05:52:37;;;;;;;8.93;8.02;;;27.90;56.00;;;;;;4738230;59;21536;-28
2021/07/21 05:57:38;;;;;;;8.88;7.97;;;27.90;55.90;;;;;;4765779;55;21109;-28
2021/07/21 06:02:39;;;;;;;9.32;8.05;;;27.90;55.90;;;;;;4758327;55;21553;-23
2021/07/21 06:07:40;;;;;;;10.15;8.50;;;27.90;55.90;;;;;;4745117;55;20994;-22
2021/07/21 06:12:41;;;;;;;8.88;7.97;;;27.90;55.90;;;;;;4743417;55;21055;-21
2021/07/21 06:17:41;;;;;;;10.05;9.00;;;27.90;55.80;;;;;;4813111;55;21002;-26
2021/07/21 06:22:43;;;;;;;9.85;8.85;;;27.90;55.80;;;;;;4739409;55;22068;-23
2021/07/21 06:27:44;;;;;;;11.12;8.82;;;27.90;55.80;;;;;;4738308;59;21465;-27
2021/07/21 06:32:45;;;;;;;11.18;9.52;;;27.90;55.70;;;;;;4738036;59;21017;-22
2021/07/21 06:37:46;;;;;;;10.15;8.80;;;27.90;55.70;;;;;;4768589;55;20986;-20
2021/07/21 06:42:47;;;;;;;10.93;9.93;;;27.90;55.80;;;;;;4738484;59;21101;-25
2021/07/21 06:47:47;;;;;;;10.13;9.10;;;27.90;55.60;;;;;;4786136;55;21010;-21
2021/07/21 06:52:48;;;;;;;10.23;9.23;;;27.90;55.10;;;;;;4761051;55;21018;-21
2021/07/21 06:57:52;;;;;;;10.82;9.73;;;27.90;55.60;;;;;;4743690;55;21021;-26
2021/07/21 07:02:53;;;;;;;12.13;10.27;;;27.90;55.60;;;;;;4770135;55;21017;-23
2021/07/21 07:07:54;;;;;;;11.15;10.05;;;27.90;55.60;;;;;;4738228;59;21061;-28
2021/07/21 07:12:55;;;;;;;11.38;10.27;;;27.90;55.70;;;;;;4750380;55;21556;-30
2021/07/21 07:17:56;;;;;;;11.30;10.20;;;27.80;55.50;;;;;;4785520;55;21564;-28
2021/07/21 07:22:57;;;;;;;13.00;10.55;;;27.80;55.60;;;;;;4748110;55;21022;-27
2021/07/21 07:27:58;;;;;;;12.18;10.88;;;27.80;55.40;;;;;;4738319;59;21033;-23
2021/07/21 07:32:59;;;;;;;12.85;11.20;;;27.80;55.40;;;;;;4737872;56;21018;-29
2021/07/21 07:38:00;;;;;;;34.08;26.35;;;27.90;55.40;;;;;;4744791;55;21116;-24
2021/07/21 07:43:01;;;;;;;33.78;25.58;;;27.80;49.80;;;;;;4763653;55;21605;-31
2021/07/21 07:48:03;;;;;;;35.80;24.37;;;27.60;47.70;;;;;;4755342;55;20974;-23
2021/07/21 07:53:04;;;;;;;42.15;31.40;;;27.40;47.10;;;;;;4759174;55;21034;-28
2021/07/21 07:58:04;;;;;;;46.25;33.95;;;27.40;47.70;;;;;;4779503;55;21537;-28
2021/07/21 08:03:05;;;;;;;50.42;29.90;;;27.40;47.60;;;;;;4773111;55;21509;-27
2021/07/21 08:08:06;;;;;;;53.95;31.40;;;27.60;49.60;;;;;;4751268;55;21046;-27
2021/07/21 08:13:07;;;;;;;44.47;29.52;;;27.70;50.70;;;;;;4738814;59;21112;-30
2021/07/21 08:18:08;;;;;;;55.00;30.90;;;27.70;51.80;;;;;;4737569;59;21014;-25
2021/07/21 08:23:09;;;;;;;46.22;30.20;;;27.80;50.60;;;;;;4737554;59;21006;-22
2021/07/21 08:28:14;;;;;;;49.05;29.48;;;27.80;50.60;;;;;;4745716;55;20998;-27
2021/07/21 08:33:15;;;;;;;45.30;29.87;;;27.80;51.90;;;;;;4785406;55;22143;-30
2021/07/21 08:38:16;;;;;;;42.65;29.55;;;27.80;51.40;;;;;;4790041;55;21933;-31
2021/07/21 08:43:17;;;;;;;42.28;29.87;;;27.90;50.40;;;;;;4755826;55;21085;-27
2021/07/21 08:48:18;;;;;;;34.80;27.83;;;27.90;50.40;;;;;;4755596;55;21025;-29
2021/07/21 08:53:19;;;;;;;37.10;27.62;;;27.90;50.70;;;;;;4770048;55;21041;-21
2021/07/21 08:58:20;;;;;;;32.05;23.83;;;27.90;50.30;;;;;;4756385;55;21101;-26
2021/07/21 09:03:27;;;;;;;23.55;19.52;;;27.90;47.70;;;;;;4754540;55;21046;-23
2021/07/21 09:08:30;;;;;;;;;;;27.80;43.60;;;;;;4750633;55;20994;-25
2021/07/21 09:13:34;;;;;;;25.23;18.62;;;27.70;42.00;;;;;;4739000;55;20130;-37
2021/07/21 09:18:52;;;;;;;24.12;19.27;;;27.70;41.40;;;;;;4786712;55;21636;-23
2021/07/21 09:23:56;;;;;;;29.67;21.30;;;27.70;41.60;;;;;;4739460;55;21549;-23
2021/07/21 09:28:59;;;;;;;24.52;19.48;;;27.70;41.70;;;;;;4738535;59;21078;-26
2021/07/21 09:34:22;;;;;;;28.17;20.08;;;27.70;41.60;;;;;;4747807;55;21162;-28
2021/07/21 09:39:31;;;;;;;26.75;18.83;;;27.60;41.50;;;;;;4754921;55;21452;-28
2021/07/21 09:44:35;;;;;;;23.55;18.50;;;27.60;41.20;;;;;;4781588;55;21006;-29
2021/07/21 09:49:35;;;;;;;30.50;20.90;;;27.60;40.90;;;;;;4746265;55;21116;-27
2021/07/21 09:54:36;;;;;;;29.65;20.65;;;27.60;41.20;;;;;;4753189;55;21388;-25
2021/07/21 09:59:37;;;;;;;24.80;19.80;;;27.70;42.60;;;;;;4741924;55;21026;-27
2021/07/21 10:04:40;;;;;;;25.42;19.60;;;27.80;42.90;;;;;;4759740;55;21045;-29
2021/07/21 10:09:40;;;;;;;28.25;19.95;;;27.80;43.30;;;;;;4752721;55;21049;-24
2021/07/21 10:15:02;;;;;;;23.83;19.40;;;27.80;43.60;;;;;;4738082;55;21049;-30
2021/07/21 10:20:05;;;;;;;28.92;22.60;;;27.80;43.70;;;;;;4738149;59;21009;-28
2021/07/21 10:25:07;;;;;;;32.05;24.98;;;27.90;42.90;;;;;;4736944;59;21037;-28
2021/07/21 10:30:12;;;;;;;36.80;24.92;;;27.80;42.20;;;;;;4744408;55;20997;-24
2021/07/21 10:35:13;;;;;;;32.90;24.58;;;27.80;42.20;;;;;;4750288;55;21121;-27
2021/07/21 10:40:15;;;;;;;30.50;23.30;;;27.80;42.20;;;;;;4737861;56;21322;-28
2021/07/21 10:45:21;;;;;;;30.58;23.23;;;27.70;42.30;;;;;;4736877;59;22030;-26
2021/07/21 10:50:30;;;;;;;34.63;25.20;;;27.70;42.40;;;;;;4794557;55;21107;-27
2021/07/21 10:55:35;;;;;;;38.80;29.05;;;27.70;42.70;;;;;;4737084;59;21485;-24
2021/07/21 11:00:42;;;;;;;41.58;31.98;;;27.70;42.90;;;;;;4763537;55;21120;-26
2021/07/21 11:05:44;;;;;;;44.72;32.88;;;27.80;43.00;;;;;;4768058;55;21607;-23
2021/07/21 11:10:47;;;;;;;40.30;29.73;;;27.70;43.30;;;;;;4737254;59;21631;-24
2021/07/21 11:15:50;;;;;;;40.78;31.10;;;27.90;44.60;;;;;;4748048;55;21042;-26
2021/07/21 11:21:05;;;;;;;34.17;30.35;;;27.90;45.40;;;;;;4786439;55;21611;-21
2021/07/21 11:32:55;;;;;;;38.90;30.35;;;27.90;44.80;;;;;;4763127;55;21049;-24
2021/07/21 11:38:00;;;;;;;39.80;30.37;;;28.00;45.70;;;;;;4740800;55;21512;-22
2021/07/21 11:43:31;;;;;;;37.13;30.40;;;28.00;46.10;;;;;;4738325;59;21069;-27
2021/07/21 11:48:32;;;;;;;41.72;31.83;;;28.10;46.40;;;;;;4746291;55;20994;-26
2021/07/21 11:53:33;;;;;;;40.38;32.05;;;28.10;46.50;;;;;;4737158;59;21113;-23
2021/07/21 11:58:34;;;;;;;39.38;33.58;;;28.10;46.80;;;;;;4740406;55;21052;-23
2021/07/21 12:03:48;;;;;;;70.85;35.00;;;28.10;47.00;;;;;;4737298;59;21492;-28
2021/07/21 12:08:57;;;;;;;55.78;33.53;;;28.20;48.10;;;;;;4769257;55;20986;-22
2021/07/21 12:14:03;;;;;;;48.65;32.55;;;28.10;47.90;;;;;;4743137;55;21468;-26
2021/07/21 12:19:06;;;;;;;43.50;31.27;;;28.10;48.00;;;;;;4776955;55;21070;-25
2021/07/21 12:24:09;;;;;;;43.83;30.95;;;28.10;48.10;;;;;;4769082;55;21073;-23
2021/07/21 12:29:11;;;;;;;41.50;30.10;;;28.00;48.20;;;;;;4756868;55;21572;-26
2021/07/21 12:34:20;;;;;;;42.90;32.05;;;28.00;48.20;;;;;;4739614;55;21025;-23
2021/07/21 12:39:27;;;;;;;43.55;31.98;;;28.00;49.00;;;;;;4737740;59;21024;-26
2021/07/21 12:44:35;;;;;;;41.50;31.00;;;28.00;48.40;;;;;;4772309;55;20990;-23
2021/07/21 12:49:37;;;;;;;44.40;30.88;;;28.00;48.50;;;;;;4739577;55;21010;-24
2021/07/21 12:54:38;;;;;;;39.35;29.23;;;28.00;48.60;;;;;;4757137;55;21699;-24
2021/07/21 12:59:39;;;;;;;37.70;30.00;;;28.00;48.60;;;;;;4743753;55;21066;-23
2021/07/21 13:04:40;;;;;;;38.28;29.27;;;27.90;48.60;;;;;;4766866;55;21157;-24
2021/07/21 13:09:50;;;;;;;39.60;30.17;;;28.00;48.70;;;;;;4738644;59;21464;-21
2021/07/21 13:14:56;;;;;;;39.60;29.95;;;28.00;48.80;;;;;;4738559;59;21552;-22
2021/07/21 13:20:15;;;;;;;38.55;30.52;;;27.90;48.80;;;;;;4819675;55;21052;-28
2021/07/21 13:25:17;;;;;;;38.55;29.63;;;27.90;48.90;;;;;;4751735;55;21062;-22
2021/07/21 13:30:21;;;;;;;36.72;30.40;;;27.90;49.00;;;;;;4760316;55;21059;-21
2021/07/21 13:35:25;;;;;;;34.55;28.98;;;27.90;49.00;;;;;;4813153;55;21320;-21
2021/07/21 13:40:26;;;;;;;36.17;29.40;;;27.90;49.10;;;;;;4750458;55;21591;-22
2021/07/21 13:45:27;;;;;;;41.13;30.33;;;27.90;49.10;;;;;;4745339;55;21018;-24
2021/07/21 13:50:28;;;;;;;35.85;28.23;;;27.90;49.30;;;;;;4749383;55;21002;-24
2021/07/21 13:55:29;;;;;;;38.40;29.17;;;27.90;49.40;;;;;;4815032;55;21018;-23
2021/07/21 14:00:30;;;;;;;34.50;28.00;;;27.90;49.90;;;;;;4738651;59;21099;-21
2021/07/21 14:05:31;;;;;;;36.03;27.52;;;27.90;49.40;;;;;;4744910;55;21017;-27
2021/07/21 14:10:32;;;;;;;32.88;27.52;;;27.90;49.40;;;;;;4785350;55;21452;-23
2021/07/21 14:15:35;;;;;;;32.47;26.60;;;27.90;49.50;;;;;;4766914;55;21053;-27
2021/07/21 14:20:36;;;;;;;33.15;26.98;;;27.90;49.50;;;;;;4763285;55;20998;-21
2021/07/21 14:25:37;;;;;;;32.38;27.77;;;27.90;49.50;;;;;;4758596;55;21030;-20
2021/07/21 14:30:38;;;;;;;32.65;25.90;;;27.80;49.40;;;;;;4787363;55;21575;-28
2021/07/21 14:35:38;;;;;;;34.13;28.08;;;27.90;49.60;;;;;;4759843;55;21481;-27
2021/07/21 14:40:39;;;;;;;30.73;25.60;;;27.90;49.50;;;;;;4750235;55;21129;-28
2021/07/21 14:45:40;;;;;;;33.03;25.77;;;27.90;49.70;;;;;;4761094;55;21006;-25
2021/07/21 14:50:41;;;;;;;31.95;26.92;;;27.90;49.80;;;;;;4777384;55;21056;-26
2021/07/21 14:55:42;;;;;;;31.40;25.80;;;27.90;49.80;;;;;;4740750;55;21018;-26
2021/07/21 15:00:44;;;;;;;30.85;25.88;;;27.80;49.60;;;;;;4765557;55;21006;-23
2021/07/21 15:05:45;;;;;;;34.20;25.90;;;27.80;49.70;;;;;;4793533;55;21548;-23
2021/07/21 15:10:47;;;;;;;31.58;25.73;;;27.90;50.00;;;;;;4737413;59;21069;-23
2021/07/21 15:15:47;;;;;;;31.35;26.00;;;27.90;49.90;;;;;;4750899;55;21473;-23
2021/07/21 15:20:50;;;;;;;29.75;25.50;;;27.90;49.90;;;;;;4779235;55;21050;-24
2021/07/21 15:25:51;;;;;;;31.30;25.40;;;27.90;49.90;;;;;;4737712;59;21591;-30
2021/07/21 15:30:52;;;;;;;30.98;25.48;;;27.80;49.90;;;;;;4755997;55;21025;-27
2021/07/21 15:35:53;;;;;;;30.88;26.40;;;27.90;50.00;;;;;;4804496;55;21038;-30
2021/07/21 15:40:54;;;;;;;32.78;26.37;;;27.80;50.00;;;;;;4749282;55;21663;-26
2021/07/21 15:45:55;;;;;;;29.63;25.05;;;27.80;49.90;;;;;;4737417;59;20990;-27
2021/07/21 15:50:59;;;;;;;29.05;24.83;;;27.90;50.00;;;;;;4746503;55;21034;-25
2021/07/21 15:56:00;;;;;;;29.23;25.08;;;27.80;49.90;;;;;;4739774;55;21387;-35
2021/07/21 16:01:01;;;;;;;31.02;25.75;;;27.80;50.00;;;;;;4782995;55;21500;-27
2021/07/21 16:06:02;;;;;;;31.62;26.15;;;27.80;50.00;;;;;;4767323;55;21018;-22
2021/07/21 16:11:03;;;;;;;30.55;25.75;;;27.80;49.90;;;;;;4758522;55;21002;-26
2021/07/21 16:16:07;;;;;;;30.70;24.42;;;27.80;50.00;;;;;;4771030;55;20991;-26
2021/07/21 16:21:10;;;;;;;28.95;24.52;;;27.80;50.00;;;;;;4768110;55;21531;-31
2021/07/21 16:26:12;;;;;;;28.05;23.50;;;27.80;50.20;;;;;;4739521;55;20997;-23
2021/07/21 16:31:13;;;;;;;29.85;23.87;;;27.80;50.00;;;;;;4738579;59;20990;-24
2021/07/21 16:36:14;;;;;;;29.25;24.15;;;27.80;50.10;;;;;;4738427;59;21018;-24
2021/07/21 16:41:15;;;;;;;28.67;24.63;;;27.80;50.00;;;;;;4748714;55;21049;-24
2021/07/21 16:46:16;;;;;;;27.00;23.12;;;27.80;50.10;;;;;;4743207;55;21482;-23
2021/07/21 16:51:20;;;;;;;27.87;23.45;;;27.80;49.60;;;;;;4788748;55;21069;-24
2021/07/21 16:56:22;;;;;;;28.05;22.85;;;27.80;50.20;;;;;;4741496;55;21041;-24
2021/07/21 17:01:24;;;;;;;29.63;23.85;;;27.80;50.10;;;;;;4755736;55;21039;-31
2021/07/21 17:06:25;;;;;;;25.33;22.58;;;27.80;50.00;;;;;;4737166;55;21037;-29
2021/07/21 17:11:26;;;;;;;26.80;23.02;;;27.80;50.20;;;;;;4766412;55;21026;-28
2021/07/21 17:16:27;;;;;;;26.85;22.35;;;27.80;50.20;;;;;;4759262;55;22207;-26
2021/07/21 17:21:28;;;;;;;26.15;22.23;;;27.80;50.10;;;;;;4768834;55;21101;-26
2021/07/21 17:26:30;;;;;;;25.60;22.00;;;27.80;50.70;;;;;;4754983;55;20998;-26
2021/07/21 17:31:31;;;;;;;24.60;22.00;;;27.80;50.20;;;;;;4756443;55;21564;-28
2021/07/21 17:36:32;;;;;;;25.45;21.60;;;27.80;50.20;;;;;;4755715;55;21022;-30
2021/07/21 17:41:34;;;;;;;25.48;21.90;;;27.80;50.10;;;;;;4754788;55;21037;-30
2021/07/21 17:46:35;;;;;;;24.20;21.67;;;27.80;50.30;;;;;;4737492;59;21014;-31
2021/07/21 17:51:36;;;;;;;25.80;21.92;;;27.80;50.40;;;;;;4738056;59;21580;-31
2021/07/21 17:56:37;;;;;;;23.83;20.70;;;27.80;50.70;;;;;;4753901;55;21496;-29
2021/07/21 18:01:38;;;;;;;24.40;20.83;;;27.80;50.20;;;;;;4746751;55;21025;-32
2021/07/21 18:06:38;;;;;;;24.30;21.02;;;27.80;50.20;;;;;;4773530;55;21046;-26
2021/07/21 18:11:39;;;;;;;24.75;21.48;;;27.80;50.50;;;;;;4747351;55;21033;-25
2021/07/21 18:16:41;;;;;;;22.92;20.30;;;27.80;50.30;;;;;;4739281;55;21406;-28
2021/07/21 18:21:42;;;;;;;24.50;21.40;;;27.80;50.40;;;;;;4780143;55;21062;-24
2021/07/21 18:26:43;;;;;;;23.95;20.98;;;27.80;50.40;;;;;;4780010;55;21112;-26
2021/07/21 18:31:43;;;;;;;23.17;20.48;;;27.80;50.40;;;;;;4738127;59;21194;-30
2021/07/21 18:36:44;;;;;;;22.67;19.75;;;27.80;50.40;;;;;;4764411;55;21732;-27
2021/07/21 18:41:45;;;;;;;21.48;18.92;;;27.80;50.40;;;;;;4761157;55;21017;-26
2021/07/21 18:46:46;;;;;;;24.05;21.02;;;27.80;50.50;;;;;;4783279;55;21093;-26
2021/07/21 18:51:47;;;;;;;22.27;19.75;;;27.80;50.60;;;;;;4756596;55;21082;-28
2021/07/21 18:56:48;;;;;;;21.85;19.55;;;27.80;50.60;;;;;;4758066;55;20998;-20
2021/07/21 19:01:49;;;;;;;22.85;19.87;;;27.80;50.60;;;;;;4785171;55;21133;-30
2021/07/21 19:06:49;;;;;;;23.45;19.80;;;27.80;50.60;;;;;;4750957;55;21045;-27
2021/07/21 19:11:50;;;;;;;21.55;19.25;;;27.80;50.60;;;;;;4763436;55;21002;-21
2021/07/21 19:16:51;;;;;;;23.83;19.77;;;27.80;50.80;;;;;;4759874;55;21453;-25
2021/07/21 19:21:52;;;;;;;21.92;19.05;;;27.80;51.00;;;;;;4760847;55;21018;-27
2021/07/21 19:26:52;;;;;;;22.02;19.73;;;27.80;50.80;;;;;;4797263;55;21500;-23
2021/07/21 19:31:53;;;;;;;21.75;19.45;;;27.80;50.80;;;;;;4761802;55;21505;-23
2021/07/21 19:36:54;;;;;;;22.58;19.08;;;27.80;50.90;;;;;;4738546;55;20982;-23
2021/07/21 19:41:57;;;;;;;22.05;18.08;;;27.80;51.00;;;;;;4763554;55;21021;-27
2021/07/21 19:46:57;;;;;;;20.80;18.33;;;27.80;50.90;;;;;;4784306;55;21026;-26
2021/07/21 19:51:58;;;;;;;21.08;18.55;;;27.70;50.90;;;;;;4738107;55;21525;-24
2021/07/21 19:56:59;;;;;;;21.55;19.25;;;27.80;51.00;;;;;;4738369;59;20998;-23
2021/07/21 20:02:01;;;;;;;22.40;19.48;;;27.80;51.10;;;;;;4781712;55;21101;-23
2021/07/21 20:07:06;;;;;;;23.55;19.12;;;27.80;51.10;;;;;;4763924;55;21022;-20
2021/07/21 20:12:07;;;;;;;20.37;18.05;;;27.80;50.90;;;;;;4738283;59;21049;-24
2021/07/21 20:17:08;;;;;;;20.48;17.70;;;27.70;51.50;;;;;;4786283;55;21129;-28
2021/07/21 20:22:12;;;;;;;21.37;18.75;;;27.80;50.90;;;;;;4750278;55;21074;-25
2021/07/21 20:27:13;;;;;;;20.55;17.65;;;27.80;51.10;;;;;;4769675;55;21002;-25
2021/07/21 20:32:14;;;;;;;19.70;17.35;;;27.80;51.10;;;;;;4747938;55;21026;-26
2021/07/21 20:37:15;;;;;;;20.33;18.12;;;27.70;51.00;;;;;;4756928;55;21003;-30
2021/07/21 20:42:17;;;;;;;21.77;18.05;;;27.80;51.10;;;;;;4774870;55;20998;-29
2021/07/21 20:47:18;;;;;;;18.80;16.87;;;27.70;51.10;;;;;;4772037;55;21069;-30
2021/07/21 20:52:19;;;;;;;20.08;16.52;;;27.70;51.20;;;;;;4749493;55;21110;-29
2021/07/21 20:57:20;;;;;;;18.95;16.70;;;27.70;51.10;;;;;;4737835;59;21099;-27
2021/07/21 21:02:23;;;;;;;22.02;16.75;;;27.70;51.10;;;;;;4746679;55;21555;-27
2021/07/21 21:07:24;;;;;;;19.00;16.67;;;27.70;51.10;;;;;;4737828;59;21045;-27
2021/07/21 21:12:25;;;;;;;18.60;16.60;;;27.70;51.30;;;;;;4799266;55;21057;-31
2021/07/21 21:17:27;;;;;;;18.40;16.45;;;27.70;51.30;;;;;;4740369;55;21006;-28
2021/07/21 21:22:28;;;;;;;19.62;16.25;;;27.70;51.30;;;;;;4746104;55;21114;-27
2021/07/21 21:27:29;;;;;;;18.58;16.55;;;27.70;51.50;;;;;;4737591;55;21117;-23
2021/07/21 21:32:29;;;;;;;18.80;16.25;;;27.70;51.30;;;;;;4815833;55;21013;-23
2021/07/21 21:37:33;;;;;;;16.67;14.98;;;27.70;51.30;;;;;;4776764;55;21022;-22
2021/07/21 21:42:34;;;;;;;17.40;15.35;;;27.70;51.50;;;;;;4758087;55;21022;-29
2021/07/21 21:47:35;;;;;;;18.10;16.08;;;27.70;51.60;;;;;;4737262;59;21014;-26
2021/07/21 21:52:35;;;;;;;17.33;15.52;;;27.70;51.60;;;;;;4786300;55;21141;-29
2021/07/21 21:57:36;;;;;;;18.35;15.23;;;27.70;51.60;;;;;;4749536;55;21077;-27
2021/07/21 22:02:37;;;;;;;18.77;16.08;;;27.70;51.70;;;;;;4738091;59;21010;-22
2021/07/21 22:07:41;;;;;;;17.48;15.40;;;27.70;51.70;;;;;;4737716;59;21007;-23
2021/07/21 22:12:43;;;;;;;17.27;15.38;;;27.70;51.60;;;;;;4754374;55;21022;-23
2021/07/21 22:17:44;;;;;;;17.85;15.70;;;27.70;51.80;;;;;;4763470;55;21066;-27
2021/07/21 22:22:45;;;;;;;16.17;14.48;;;27.70;51.70;;;;;;4762357;55;20994;-28
2021/07/21 22:28:01;;;;;;;17.20;15.40;;;27.70;51.90;;;;;;4751240;55;21038;-27
2021/07/21 22:33:06;;;;;;;16.90;14.50;;;27.70;51.80;;;;;;4763372;55;21054;-23
2021/07/21 22:38:08;;;;;;;17.80;15.05;;;27.70;51.80;;;;;;4779624;55;21045;-29
2021/07/21 22:43:15;;;;;;;16.42;14.57;;;27.70;51.70;;;;;;4764456;55;21533;-23
2021/07/21 22:48:15;;;;;;;15.27;13.68;;;27.70;51.80;;;;;;4770061;55;21057;-25
2021/07/21 22:53:19;;;;;;;15.43;13.88;;;27.70;51.90;;;;;;4737526;59;21122;-24
2021/07/21 22:58:20;;;;;;;16.02;14.32;;;27.70;51.90;;;;;;4738229;59;22123;-28
2021/07/21 23:03:58;;;;;;;16.35;14.65;;;27.70;51.70;;;;;;4763746;55;21508;-28
2021/07/21 23:09:36;;;;;;;15.32;13.73;;;27.70;51.90;;;;;;4756356;55;21093;-27
2021/07/21 23:15:17;;;;;;;15.25;13.65;;;27.70;52.20;;;;;;4739577;55;21046;-24
2021/07/21 23:20:22;;;;;;;14.82;13.25;;;27.70;51.90;;;;;;4740821;55;22096;-26
2021/07/21 23:25:25;;;;;;;14.18;12.45;;;27.70;52.00;;;;;;4752088;55;21504;-23
2021/07/21 23:30:29;;;;;;;14.95;13.32;;;27.70;52.00;;;;;;4754430;55;21069;-27
2021/07/21 23:35:33;;;;;;;14.63;13.13;;;27.70;52.10;;;;;;4749822;55;21101;-29
2021/07/21 23:40:34;;;;;;;14.63;13.13;;;27.70;52.60;;;;;;4756585;55;21010;-30
2021/07/21 23:45:35;;;;;;;14.20;12.70;;;27.70;52.10;;;;;;4741160;55;21025;-29
2021/07/21 23:50:36;;;;;;;14.63;13.00;;;27.70;52.80;;;;;;4738581;59;21591;-27
2021/07/21 23:55:36;;;;;;;14.10;12.68;;;27.70;52.30;;;;;;4738607;55;21074;-26
